Hartford, Connecticut
Traffic Map
Current Weather Conditions
Hartford, Connecticut
Few Clouds
Few Clouds
82°
Feels Like: 82°
Wind Chill: 82° Ceiling: Unl
Heat Index: 82° Visibility: 10mi
Dew Point: 57° Wind: 3mph
Humidity: 42% Direction: ° ()
Pressure: 30.12in Gusts: 0mph
Raw Report DataKHFD 301653Z VRB03KT 10SM FEW050 28/14 A3012 RMK AO2 SLP200 T02780139
Traffic Incident Summary
Active as of:
Severity:
Category:
InformationThere was an issue retrieving the traffic information for this location. Please try a different location or try again shortly.
Advertisements
Track Severe Weather on mobile